Time;durP1;ratioP1;P1;durP2;ratioP2;P2;SDS_P1;SDS_P2;PMS_P1;PMS_P2;Temp;Humidity;BMP_temperature;BMP_pressure;BME280_temperature;BME280_humidity;BME280_pressure;Samples;Min_cycle;Max_cycle;Signal;HPM_P1;HPM_P2
2021/07/06 00:00:35;;;;;;;3.88;0.70;;;21.20;99.90;;;;;;2106431;28;20031;-68
2021/07/06 00:01:35;;;;;;;1.05;0.68;;;21.20;99.90;;;;;;2106354;28;20051;-68
2021/07/06 00:02:36;;;;;;;2.10;0.80;;;21.10;99.90;;;;;;2106322;28;20028;-68
2021/07/06 00:03:37;;;;;;;1.98;0.57;;;21.20;99.90;;;;;;2106413;28;20055;-68
2021/07/06 00:04:37;;;;;;;2.35;0.77;;;21.20;99.90;;;;;;2106264;28;20062;-68
2021/07/06 00:05:38;;;;;;;1.75;0.50;;;21.10;99.90;;;;;;2106620;28;20106;-68
2021/07/06 00:06:38;;;;;;;1.90;0.60;;;21.10;99.90;;;;;;2106285;28;20024;-68
2021/07/06 00:07:39;;;;;;;1.48;0.43;;;21.20;99.90;;;;;;2106461;28;20016;-68
2021/07/06 00:08:40;;;;;;;2.03;0.80;;;21.10;99.90;;;;;;2106003;28;20395;-68
2021/07/06 00:09:40;;;;;;;0.75;0.63;;;21.10;99.90;;;;;;2106481;28;20063;-68
2021/07/06 00:10:41;;;;;;;0.95;0.50;;;21.10;99.90;;;;;;2106256;28;20103;-68
2021/07/06 00:11:42;;;;;;;0.50;0.50;;;21.10;99.90;;;;;;2105988;28;20383;-68
2021/07/06 00:12:43;;;;;;;2.40;0.70;;;21.10;99.90;;;;;;2106448;28;20024;-68
2021/07/06 00:13:44;;;;;;;4.70;0.80;;;21.10;99.90;;;;;;2106449;28;20032;-68
2021/07/06 00:14:45;;;;;;;0.57;0.50;;;21.10;99.90;;;;;;2106100;28;20052;-68
2021/07/06 00:15:46;;;;;;;1.80;0.55;;;21.10;99.90;;;;;;2106617;28;20023;-68
2021/07/06 00:16:47;;;;;;;3.92;0.75;;;21.00;99.90;;;;;;2106476;28;20032;-68
2021/07/06 00:17:48;;;;;;;1.42;0.70;;;21.00;99.90;;;;;;2106853;28;20032;-68
2021/07/06 00:18:49;;;;;;;0.50;0.50;;;21.00;99.90;;;;;;2105877;28;20040;-68
2021/07/06 00:19:49;;;;;;;3.95;0.70;;;21.00;99.90;;;;;;2106644;28;20031;-68
2021/07/06 00:20:50;;;;;;;1.02;0.80;;;21.00;99.90;;;;;;2106297;28;20039;-68
2021/07/06 00:21:51;;;;;;;1.42;0.40;;;21.00;99.90;;;;;;2105716;28;20114;-68
2021/07/06 00:22:53;;;;;;;3.45;0.85;;;21.00;99.90;;;;;;2106444;28;20046;-68
2021/07/06 00:23:54;;;;;;;0.68;0.68;;;21.00;99.90;;;;;;2106518;28;20024;-68
2021/07/06 00:24:55;;;;;;;1.38;0.70;;;21.00;99.90;;;;;;2106185;28;20028;-68
2021/07/06 00:25:55;;;;;;;2.35;0.60;;;21.00;99.90;;;;;;2106259;28;20024;-68
2021/07/06 00:26:56;;;;;;;0.82;0.60;;;21.00;99.90;;;;;;2106220;28;20424;-68
2021/07/06 00:27:57;;;;;;;4.85;0.75;;;21.00;99.90;;;;;;2106349;28;20032;-68
2021/07/06 00:28:58;;;;;;;2.05;0.93;;;20.90;99.90;;;;;;2106269;28;20016;-68
2021/07/06 00:29:58;;;;;;;1.30;0.55;;;21.00;99.90;;;;;;2106464;28;20016;-68
2021/07/06 00:30:59;;;;;;;2.20;0.60;;;21.00;99.90;;;;;;2106368;28;20097;-68
2021/07/06 00:32:00;;;;;;;1.08;0.73;;;21.00;99.90;;;;;;2105787;28;20019;-68
2021/07/06 00:33:00;;;;;;;1.65;0.70;;;20.90;99.90;;;;;;2106232;28;20016;-68
2021/07/06 00:34:01;;;;;;;0.60;0.60;;;21.00;99.90;;;;;;2113992;28;20047;-68
2021/07/06 00:35:02;;;;;;;3.03;0.90;;;21.00;99.90;;;;;;2113946;28;20023;-68
2021/07/06 00:36:03;;;;;;;1.58;0.70;;;21.00;99.90;;;;;;2106284;28;20451;-68
2021/07/06 00:37:04;;;;;;;1.50;0.70;;;21.00;99.90;;;;;;2106321;28;20383;-68
2021/07/06 00:38:04;;;;;;;1.45;0.57;;;21.00;99.90;;;;;;2106551;28;20020;-68
2021/07/06 00:39:05;;;;;;;1.58;0.70;;;20.90;99.90;;;;;;2106373;28;20078;-68
2021/07/06 00:40:08;;;;;;;1.13;0.70;;;21.00;99.90;;;;;;2106259;28;20035;-68
2021/07/06 00:41:08;;;;;;;1.63;0.60;;;21.00;99.90;;;;;;2106244;28;20069;-68
2021/07/06 00:42:09;;;;;;;3.55;0.65;;;21.00;99.90;;;;;;2105898;28;20077;-68
2021/07/06 00:43:10;;;;;;;0.77;0.70;;;21.00;99.90;;;;;;2106291;28;20623;-68
2021/07/06 00:44:16;;;;;;;3.15;0.90;;;21.00;99.90;;;;;;2105853;28;20659;-68
2021/07/06 00:45:17;;;;;;;1.92;0.88;;;21.00;99.90;;;;;;2106207;28;20134;-68
2021/07/06 00:46:18;;;;;;;2.35;0.98;;;21.00;99.90;;;;;;2106140;28;20374;-68
2021/07/06 00:47:30;;;;;;;2.03;0.60;;;21.00;99.90;;;;;;2106293;28;20032;-68
2021/07/06 00:48:32;;;;;;;0.82;0.50;;;21.00;99.90;;;;;;2106317;28;20074;-68
2021/07/06 00:49:32;;;;;;;2.92;0.65;;;21.00;99.90;;;;;;2106211;28;20820;-68
2021/07/06 00:50:33;;;;;;;0.70;0.70;;;21.00;99.90;;;;;;2105838;28;20474;-68
2021/07/06 00:51:34;;;;;;;2.15;0.63;;;21.00;99.90;;;;;;2105696;28;20059;-68
2021/07/06 00:52:35;;;;;;;1.88;0.60;;;21.00;99.90;;;;;;2105888;28;20047;-68
2021/07/06 00:53:35;;;;;;;0.60;0.60;;;21.00;99.90;;;;;;2106317;28;20030;-68
2021/07/06 00:54:36;;;;;;;1.85;0.60;;;21.00;99.90;;;;;;2106071;28;20020;-68
2021/07/06 00:55:37;;;;;;;2.53;0.75;;;21.00;99.90;;;;;;2105986;28;20043;-68
2021/07/06 00:56:38;;;;;;;3.03;0.50;;;21.00;99.90;;;;;;2105989;28;20031;-68
2021/07/06 00:57:39;;;;;;;2.75;0.60;;;21.00;99.90;;;;;;2105580;28;20020;-68
2021/07/06 00:58:46;;;;;;;0.60;0.60;;;21.00;99.90;;;;;;2105522;28;20028;-68
2021/07/06 00:59:47;;;;;;;3.15;1.20;;;21.00;99.90;;;;;;2106346;28;20073;-68
2021/07/06 01:00:48;;;;;;;1.63;0.50;;;20.90;99.90;;;;;;2105629;28;20103;-68
2021/07/06 01:01:49;;;;;;;2.90;0.80;;;21.00;99.90;;;;;;2105610;28;20099;-68
2021/07/06 01:02:50;;;;;;;2.72;0.60;;;20.90;99.90;;;;;;2106040;28;20051;-68
2021/07/06 01:03:51;;;;;;;0.88;0.63;;;20.90;99.90;;;;;;2106062;28;20032;-68
2021/07/06 01:04:53;;;;;;;1.13;0.60;;;20.90;99.90;;;;;;2105946;28;20062;-68
2021/07/06 01:05:53;;;;;;;1.30;0.57;;;20.90;99.90;;;;;;2103096;28;20024;-68
2021/07/06 01:06:54;;;;;;;1.15;0.50;;;20.90;99.90;;;;;;2104883;28;20024;-68
2021/07/06 01:07:54;;;;;;;2.47;0.80;;;20.90;99.90;;;;;;2105880;28;20110;-68
2021/07/06 01:08:55;;;;;;;9.82;1.38;;;20.90;99.90;;;;;;2105849;28;20098;-68
2021/07/06 01:09:56;;;;;;;1.85;0.80;;;20.90;99.90;;;;;;2106253;28;20031;-68
2021/07/06 01:10:58;;;;;;;1.00;0.70;;;20.90;99.90;;;;;;2105842;28;20519;-68
2021/07/06 01:11:58;;;;;;;1.95;0.70;;;20.90;99.90;;;;;;2105629;28;20483;-68
2021/07/06 01:12:59;;;;;;;0.88;0.55;;;20.90;99.90;;;;;;2105928;28;20396;-68
2021/07/06 01:14:00;;;;;;;1.65;0.60;;;20.90;99.90;;;;;;2105589;28;20060;-68
2021/07/06 01:15:03;;;;;;;0.70;0.50;;;20.90;99.90;;;;;;2105664;28;20020;-68
2021/07/06 01:16:04;;;;;;;0.68;0.68;;;20.90;99.90;;;;;;2106076;28;20069;-68
2021/07/06 01:17:04;;;;;;;0.70;0.68;;;20.90;99.90;;;;;;2105922;28;20097;-68
2021/07/06 01:18:15;;;;;;;3.75;0.90;;;20.90;99.90;;;;;;2106287;28;20023;-68
2021/07/06 01:19:15;;;;;;;4.35;0.77;;;20.90;99.90;;;;;;2105893;28;20632;-68
2021/07/06 01:20:21;;;;;;;1.33;0.57;;;20.90;99.90;;;;;;2106100;28;20039;-68
2021/07/06 01:21:22;;;;;;;1.10;0.60;;;20.90;99.90;;;;;;2105732;28;20429;-68
2021/07/06 01:22:30;;;;;;;0.95;0.70;;;20.90;99.90;;;;;;2105682;28;20032;-68
2021/07/06 01:23:31;;;;;;;4.82;0.98;;;20.90;99.90;;;;;;2105906;28;20059;-68
2021/07/06 01:24:36;;;;;;;1.15;1.05;;;20.90;99.90;;;;;;2105913;28;20032;-68
2021/07/06 01:25:39;;;;;;;0.65;0.50;;;20.90;99.90;;;;;;2105843;28;20397;-68
2021/07/06 01:26:39;;;;;;;7.57;0.90;;;20.90;99.90;;;;;;2105882;28;20054;-68
2021/07/06 01:27:41;;;;;;;0.93;0.80;;;20.90;99.90;;;;;;2106137;28;20071;-68
2021/07/06 01:28:42;;;;;;;1.05;0.85;;;20.90;99.90;;;;;;2106010;28;20115;-68
2021/07/06 01:29:42;;;;;;;5.70;0.88;;;20.90;99.90;;;;;;2105772;28;20016;-68
2021/07/06 01:30:43;;;;;;;0.70;0.70;;;21.00;99.90;;;;;;2106295;28;20028;-68
2021/07/06 01:31:48;;;;;;;3.33;0.65;;;20.90;99.90;;;;;;2104887;28;20379;-68
2021/07/06 01:32:49;;;;;;;2.15;0.80;;;21.00;99.90;;;;;;2106040;28;20020;-68
2021/07/06 01:33:50;;;;;;;2.25;0.80;;;21.00;99.90;;;;;;2105655;28;20046;-68
2021/07/06 01:34:51;;;;;;;1.00;0.70;;;21.00;99.90;;;;;;2106072;28;20070;-68
2021/07/06 01:35:54;;;;;;;2.15;0.77;;;21.00;99.90;;;;;;2105749;28;20099;-68
2021/07/06 01:36:55;;;;;;;0.73;0.60;;;20.90;99.90;;;;;;2105845;28;20020;-68
2021/07/06 01:37:58;;;;;;;1.15;0.38;;;20.90;99.90;;;;;;2105962;28;20021;-68
2021/07/06 01:38:58;;;;;;;2.47;0.75;;;21.00;99.90;;;;;;2105984;28;20051;-68
2021/07/06 01:39:59;;;;;;;1.02;0.50;;;20.90;99.90;;;;;;2105896;28;20027;-68
2021/07/06 01:41:00;;;;;;;3.67;0.93;;;20.90;99.90;;;;;;2105984;28;20368;-68
2021/07/06 01:42:01;;;;;;;0.68;0.50;;;20.90;99.90;;;;;;2104859;28;20027;-68
2021/07/06 01:43:03;;;;;;;0.75;0.43;;;20.90;99.90;;;;;;2105877;28;20032;-68
2021/07/06 01:44:03;;;;;;;0.68;0.60;;;20.90;99.90;;;;;;2105573;28;20020;-68
2021/07/06 01:45:08;;;;;;;0.70;0.70;;;20.90;99.90;;;;;;2105909;28;20024;-68
2021/07/06 01:46:08;;;;;;;1.63;0.60;;;20.90;99.90;;;;;;2105719;28;20031;-68
2021/07/06 01:47:09;;;;;;;2.65;0.73;;;20.90;99.90;;;;;;2105912;28;20095;-68
2021/07/06 01:48:10;;;;;;;4.13;0.70;;;20.90;99.90;;;;;;2105727;28;20475;-68
2021/07/06 01:49:13;;;;;;;1.48;0.80;;;20.90;99.90;;;;;;2105804;28;20028;-68
2021/07/06 01:50:25;;;;;;;2.28;0.57;;;20.90;99.90;;;;;;2105862;28;20074;-68
2021/07/06 01:51:25;;;;;;;0.47;0.45;;;20.90;99.90;;;;;;2105593;28;20513;-68
2021/07/06 01:52:26;;;;;;;0.50;0.50;;;20.90;99.90;;;;;;2105456;28;20386;-68
2021/07/06 01:53:27;;;;;;;2.25;0.65;;;20.90;99.90;;;;;;2106024;28;20025;-68
2021/07/06 01:54:28;;;;;;;2.03;0.60;;;20.90;99.90;;;;;;2105818;28;20459;-68
2021/07/06 01:55:40;;;;;;;2.05;0.60;;;20.90;99.90;;;;;;2105748;28;20024;-68
2021/07/06 01:56:45;;;;;;;2.45;0.90;;;20.90;99.90;;;;;;2105744;28;20103;-68
2021/07/06 01:57:47;;;;;;;0.80;0.65;;;20.90;99.90;;;;;;2105916;28;20448;-68
2021/07/06 01:58:47;;;;;;;4.72;0.70;;;20.80;99.90;;;;;;2105803;28;20035;-68
2021/07/06 01:59:48;;;;;;;1.58;0.70;;;20.80;99.90;;;;;;2105806;28;20027;-68
2021/07/06 02:00:51;;;;;;;3.30;0.75;;;20.80;99.90;;;;;;2105632;28;20024;-68
2021/07/06 02:01:52;;;;;;;4.95;0.80;;;20.80;99.90;;;;;;2105369;28;20095;-68
2021/07/06 02:03:00;;;;;;;2.17;0.90;;;20.80;99.90;;;;;;2105759;28;20017;-68
2021/07/06 02:04:02;;;;;;;2.40;0.60;;;20.80;99.90;;;;;;2105963;28;20035;-68
2021/07/06 02:05:24;;;;;;;2.70;0.70;;;20.80;99.90;;;;;;2105508;28;20013;-68
2021/07/06 02:06:25;;;;;;;3.67;0.80;;;20.80;99.90;;;;;;2105745;28;20596;-68
2021/07/06 02:07:25;;;;;;;1.70;0.95;;;20.80;99.90;;;;;;2105717;28;20017;-68
2021/07/06 02:08:27;;;;;;;3.17;0.90;;;20.80;99.90;;;;;;2105475;28;20036;-68
2021/07/06 02:09:27;;;;;;;1.08;0.65;;;20.80;99.90;;;;;;2105816;28;20051;-68
2021/07/06 02:10:28;;;;;;;1.13;0.63;;;20.80;99.90;;;;;;2105814;28;20479;-68
2021/07/06 02:11:29;;;;;;;0.93;0.57;;;20.80;99.90;;;;;;2105527;28;20016;-68
2021/07/06 02:12:30;;;;;;;3.90;0.85;;;20.80;99.90;;;;;;2105744;28;20024;-68
2021/07/06 02:13:31;;;;;;;0.75;0.75;;;20.80;99.90;;;;;;2105571;28;20131;-68
2021/07/06 02:14:31;;;;;;;2.10;0.80;;;20.80;99.90;;;;;;2105877;28;20024;-68
2021/07/06 02:15:32;;;;;;;2.47;0.70;;;20.80;99.90;;;;;;2105598;28;20083;-68
2021/07/06 02:16:34;;;;;;;1.45;0.70;;;20.80;99.90;;;;;;2105978;28;20054;-68
2021/07/06 02:17:35;;;;;;;2.78;0.80;;;20.80;99.90;;;;;;2105600;28;20435;-68
2021/07/06 02:18:36;;;;;;;1.40;0.93;;;20.80;99.90;;;;;;2105743;28;20028;-68
2021/07/06 02:19:37;;;;;;;5.25;1.20;;;20.80;99.90;;;;;;2105722;28;20566;-68
2021/07/06 02:20:37;;;;;;;3.22;1.00;;;20.80;99.90;;;;;;2105721;28;20056;-68
2021/07/06 02:21:38;;;;;;;2.05;0.73;;;20.80;99.90;;;;;;2105080;28;20153;-68
2021/07/06 02:22:40;;;;;;;3.17;1.00;;;20.90;99.90;;;;;;2105660;28;20497;-68
2021/07/06 02:23:41;;;;;;;3.28;0.90;;;20.90;99.90;;;;;;2105626;28;20016;-68
2021/07/06 02:24:42;;;;;;;1.08;0.75;;;20.90;99.90;;;;;;2105685;28;20027;-68
2021/07/06 02:25:43;;;;;;;3.40;1.10;;;20.90;99.90;;;;;;2105597;28;20534;-68
2021/07/06 02:26:44;;;;;;;2.75;0.90;;;20.90;99.90;;;;;;2107006;28;20056;-68
2021/07/06 02:27:47;;;;;;;0.70;0.70;;;20.90;99.90;;;;;;2107049;28;20456;-68
2021/07/06 02:28:48;;;;;;;1.25;1.00;;;20.90;99.90;;;;;;2107513;28;20478;-68
2021/07/06 02:29:48;;;;;;;4.25;1.00;;;20.90;99.90;;;;;;2106567;28;20439;-68
2021/07/06 02:30:49;;;;;;;2.58;0.90;;;20.90;99.90;;;;;;2106833;28;20135;-68
2021/07/06 02:31:49;;;;;;;2.33;0.60;;;20.90;99.90;;;;;;2106310;28;20055;-68
2021/07/06 02:32:52;;;;;;;1.40;0.63;;;20.90;99.90;;;;;;2107318;28;20028;-68
2021/07/06 02:33:52;;;;;;;1.65;0.88;;;20.90;99.90;;;;;;2106454;28;20028;-68
2021/07/06 02:34:53;;;;;;;2.88;0.70;;;20.90;99.90;;;;;;2106717;28;20016;-68
2021/07/06 02:35:53;;;;;;;2.30;0.88;;;20.90;99.90;;;;;;2107394;28;20035;-68
2021/07/06 02:36:54;;;;;;;0.95;0.75;;;20.90;99.90;;;;;;2107274;28;20020;-68
2021/07/06 02:37:56;;;;;;;2.88;1.00;;;20.90;99.90;;;;;;2106976;28;20032;-68
2021/07/06 02:38:56;;;;;;;8.27;0.90;;;20.90;99.90;;;;;;2107288;28;20020;-68
2021/07/06 02:39:57;;;;;;;3.72;0.80;;;20.90;99.90;;;;;;2107052;28;20523;-68
2021/07/06 02:40:58;;;;;;;0.80;0.70;;;20.90;99.90;;;;;;2107223;28;20356;-68
2021/07/06 02:41:58;;;;;;;1.00;0.57;;;20.90;99.90;;;;;;2106453;28;20024;-68
2021/07/06 02:42:59;;;;;;;1.50;0.60;;;20.90;99.90;;;;;;2107257;28;20016;-68
2021/07/06 02:44:00;;;;;;;2.78;0.93;;;20.90;99.90;;;;;;2107012;28;20028;-68
2021/07/06 02:45:01;;;;;;;2.05;0.82;;;20.90;99.90;;;;;;2107246;28;20034;-68
2021/07/06 02:46:02;;;;;;;2.33;0.85;;;20.90;99.90;;;;;;2107125;28;20066;-68
2021/07/06 02:47:03;;;;;;;2.28;0.63;;;20.80;99.90;;;;;;2107417;28;20037;-68
2021/07/06 02:48:04;;;;;;;2.97;0.73;;;20.80;99.90;;;;;;2106912;28;20034;-68
2021/07/06 02:49:04;;;;;;;2.47;1.05;;;20.80;99.90;;;;;;2109714;28;20439;-68
2021/07/06 02:50:07;;;;;;;2.80;0.73;;;20.80;99.90;;;;;;2115537;28;20106;-68
2021/07/06 02:51:08;;;;;;;1.50;0.80;;;20.80;99.90;;;;;;2115740;28;20480;-68
2021/07/06 02:52:08;;;;;;;1.95;0.73;;;20.80;99.90;;;;;;2114794;28;20085;-68
2021/07/06 02:53:10;;;;;;;1.13;0.60;;;20.80;99.90;;;;;;2115474;28;20081;-68
2021/07/06 02:54:10;;;;;;;1.95;0.82;;;20.80;99.90;;;;;;2115523;28;20016;-68
2021/07/06 02:55:11;;;;;;;0.70;0.70;;;20.80;99.90;;;;;;2115551;28;20463;-68
2021/07/06 02:56:12;;;;;;;1.23;0.70;;;20.80;99.90;;;;;;2108148;28;20016;-68
2021/07/06 02:57:33;;;;;;;1.48;0.68;;;20.70;99.90;;;;;;2106945;28;20024;-68
2021/07/06 02:58:33;;;;;;;1.27;0.85;;;20.80;99.90;;;;;;2106826;28;20046;-68
2021/07/06 02:59:34;;;;;;;2.67;1.10;;;20.70;99.90;;;;;;2107295;28;20024;-68
2021/07/06 03:00:35;;;;;;;0.70;0.60;;;20.70;99.90;;;;;;2106959;28;20051;-68
2021/07/06 03:01:36;;;;;;;2.72;0.80;;;20.80;99.90;;;;;;2106497;28;20020;-68
2021/07/06 03:02:38;;;;;;;0.98;0.65;;;20.70;99.90;;;;;;2106765;28;20028;-69
2021/07/06 03:03:38;;;;;;;2.72;0.90;;;20.70;99.90;;;;;;2107179;28;20026;-68
2021/07/06 03:04:39;;;;;;;1.27;0.70;;;20.70;99.90;;;;;;2106854;28;20024;-68
2021/07/06 03:05:40;;;;;;;3.38;0.80;;;20.70;99.90;;;;;;2106907;28;20501;-68
2021/07/06 03:06:40;;;;;;;3.03;1.00;;;20.70;99.90;;;;;;2107088;28;20024;-68
2021/07/06 03:07:42;;;;;;;2.58;1.00;;;20.70;99.90;;;;;;2106985;28;20024;-68
2021/07/06 03:08:42;;;;;;;2.90;1.10;;;20.70;99.90;;;;;;2107090;28;20016;-68
2021/07/06 03:09:43;;;;;;;4.43;1.08;;;20.70;99.90;;;;;;2106730;28;20036;-68
2021/07/06 03:10:44;;;;;;;2.53;1.10;;;20.70;99.90;;;;;;2107050;28;20036;-68
2021/07/06 03:11:45;;;;;;;1.42;1.05;;;20.70;99.90;;;;;;2106371;28;20027;-68
2021/07/06 03:12:46;;;;;;;6.13;1.08;;;20.70;99.90;;;;;;2107031;28;20078;-68
2021/07/06 03:13:46;;;;;;;4.65;0.98;;;20.70;99.90;;;;;;2106472;28;20024;-68
2021/07/06 03:14:47;;;;;;;2.70;0.80;;;20.70;99.90;;;;;;2107005;28;20081;-68
2021/07/06 03:15:47;;;;;;;1.17;0.57;;;20.70;99.90;;;;;;2106161;28;20028;-68
2021/07/06 03:16:48;;;;;;;2.38;0.88;;;20.70;99.90;;;;;;2106160;28;20028;-68
2021/07/06 03:17:49;;;;;;;1.65;0.80;;;20.70;99.90;;;;;;2106970;28;20024;-68
2021/07/06 03:18:50;;;;;;;2.88;1.02;;;20.70;99.90;;;;;;2107062;28;20027;-68
2021/07/06 03:19:51;;;;;;;4.22;0.95;;;20.70;99.90;;;;;;2106527;28;20111;-68
2021/07/06 03:20:51;;;;;;;0.90;0.60;;;20.80;99.90;;;;;;2106986;28;20028;-68
2021/07/06 03:21:52;;;;;;;1.60;0.95;;;20.80;99.90;;;;;;2106343;28;20024;-68
2021/07/06 03:22:53;;;;;;;6.50;1.10;;;20.80;99.90;;;;;;2107018;28;20070;-68
2021/07/06 03:23:55;;;;;;;5.38;1.13;;;20.80;99.90;;;;;;2106724;28;20024;-68
2021/07/06 03:24:56;;;;;;;4.25;0.98;;;20.80;99.90;;;;;;2106901;28;20490;-68
2021/07/06 03:25:56;;;;;;;2.03;1.05;;;20.80;99.90;;;;;;2106724;28;20457;-68
2021/07/06 03:26:57;;;;;;;1.40;0.95;;;20.80;99.90;;;;;;2106716;28;20540;-68
2021/07/06 03:27:59;;;;;;;1.20;1.10;;;20.80;99.90;;;;;;2105828;28;20032;-68
2021/07/06 03:29:00;;;;;;;5.07;1.02;;;20.80;99.90;;;;;;2106328;28;20510;-68
2021/07/06 03:30:00;;;;;;;2.30;1.00;;;20.80;99.90;;;;;;2106784;28;20050;-68
2021/07/06 03:31:01;;;;;;;3.45;1.20;;;20.80;99.90;;;;;;2106654;28;20035;-68
2021/07/06 03:32:02;;;;;;;2.00;0.73;;;20.80;99.90;;;;;;2106041;28;20455;-68
2021/07/06 03:33:05;;;;;;;2.28;0.70;;;20.80;99.90;;;;;;2106964;28;20089;-68
2021/07/06 03:34:06;;;;;;;1.77;0.82;;;20.80;99.90;;;;;;2106109;28;20027;-68
2021/07/06 03:35:08;;;;;;;1.40;0.90;;;20.80;99.90;;;;;;2106114;28;20059;-68
2021/07/06 03:36:09;;;;;;;1.02;0.70;;;20.80;99.90;;;;;;2105893;28;21016;-68
2021/07/06 03:37:09;;;;;;;2.22;0.70;;;20.70;99.90;;;;;;2105954;28;20012;-68
2021/07/06 03:38:10;;;;;;;11.77;1.00;;;20.70;99.90;;;;;;2106450;28;20117;-68
2021/07/06 03:39:11;;;;;;;1.90;0.80;;;20.80;99.90;;;;;;2106655;28;20461;-68
2021/07/06 03:40:12;;;;;;;2.13;1.00;;;20.80;99.90;;;;;;2105844;28;20059;-68
2021/07/06 03:41:13;;;;;;;2.15;1.00;;;20.80;99.90;;;;;;2106067;28;20051;-68
2021/07/06 03:42:13;;;;;;;0.88;0.73;;;20.80;99.90;;;;;;2105392;28;20024;-68
2021/07/06 03:43:14;;;;;;;2.75;0.90;;;20.80;99.90;;;;;;2105956;28;20023;-68
2021/07/06 03:44:14;;;;;;;2.35;0.85;;;20.80;99.90;;;;;;2106704;28;20077;-68
2021/07/06 03:45:15;;;;;;;3.85;0.90;;;20.80;99.90;;;;;;2106773;28;20024;-68
2021/07/06 03:46:16;;;;;;;2.28;1.00;;;20.90;99.90;;;;;;2106437;28;20067;-67
2021/07/06 03:47:17;;;;;;;1.05;0.85;;;20.90;99.90;;;;;;2106754;28;20028;-68
2021/07/06 03:48:18;;;;;;;1.98;0.70;;;20.80;99.90;;;;;;2106446;28;20028;-68
2021/07/06 03:49:18;;;;;;;1.60;0.70;;;20.90;99.90;;;;;;2106597;28;20463;-68
2021/07/06 03:50:21;;;;;;;1.42;0.90;;;20.90;99.90;;;;;;2106635;28;20337;-68
2021/07/06 03:51:22;;;;;;;0.70;0.70;;;20.90;99.90;;;;;;2106236;28;20394;-69
2021/07/06 03:52:22;;;;;;;1.27;0.73;;;20.90;99.90;;;;;;2105734;28;20448;-68
2021/07/06 03:53:23;;;;;;;2.75;0.73;;;20.90;99.90;;;;;;2105856;28;20078;-68
2021/07/06 03:54:24;;;;;;;1.73;0.63;;;20.90;99.90;;;;;;2106702;28;20024;-68
2021/07/06 03:55:26;;;;;;;4.30;1.08;;;20.90;99.90;;;;;;2106465;28;20387;-68
2021/07/06 03:56:26;;;;;;;2.92;1.10;;;20.90;99.90;;;;;;2106612;28;20029;-68
2021/07/06 03:57:30;;;;;;;4.20;1.00;;;20.90;99.90;;;;;;2106471;28;20053;-68
2021/07/06 03:58:30;;;;;;;3.97;0.82;;;20.90;99.90;;;;;;2105878;28;20394;-68
2021/07/06 03:59:31;;;;;;;0.63;0.55;;;21.00;99.90;;;;;;2105680;28;20036;-69
2021/07/06 04:00:31;;;;;;;3.65;0.93;;;21.00;99.90;;;;;;2106026;28;20043;-68
2021/07/06 04:01:34;;;;;;;2.10;0.80;;;20.90;99.90;;;;;;2105765;28;20024;-68
2021/07/06 04:02:34;;;;;;;3.63;0.90;;;21.00;99.90;;;;;;2106418;28;20031;-69
2021/07/06 04:03:35;;;;;;;2.05;1.02;;;21.00;99.90;;;;;;2106267;28;20032;-68
2021/07/06 04:04:35;;;;;;;3.38;0.90;;;21.00;99.90;;;;;;2106653;28;20039;-68
2021/07/06 04:05:36;;;;;;;1.90;0.80;;;21.00;99.90;;;;;;2106225;28;20032;-68
2021/07/06 04:06:37;;;;;;;2.45;0.70;;;21.00;99.90;;;;;;2106685;28;20034;-68
2021/07/06 04:07:38;;;;;;;2.72;0.70;;;21.00;99.90;;;;;;2106373;28;20062;-68
2021/07/06 04:08:39;;;;;;;2.95;0.85;;;21.10;99.90;;;;;;2106419;28;20467;-68
2021/07/06 04:09:39;;;;;;;1.88;0.68;;;21.00;99.90;;;;;;2106390;28;20623;-68
2021/07/06 04:10:40;;;;;;;3.95;1.00;;;21.00;99.90;;;;;;2105782;28;20090;-68
2021/07/06 04:11:40;;;;;;;1.52;0.82;;;21.10;99.90;;;;;;2105025;28;20495;-68
2021/07/06 04:12:42;;;;;;;2.85;0.88;;;21.10;99.90;;;;;;2105872;28;20028;-68
2021/07/06 04:13:43;;;;;;;1.73;0.95;;;21.10;99.90;;;;;;2105384;28;20592;-68
2021/07/06 04:14:44;;;;;;;1.90;0.82;;;21.10;99.90;;;;;;2105742;28;20407;-68
2021/07/06 04:15:44;;;;;;;2.83;0.90;;;21.10;99.90;;;;;;2105765;28;20027;-68
2021/07/06 04:16:45;;;;;;;1.40;0.63;;;21.10;99.90;;;;;;2106348;28;20475;-68
2021/07/06 04:17:45;;;;;;;1.23;0.88;;;21.20;99.90;;;;;;2105723;28;20020;-68
2021/07/06 04:18:46;;;;;;;2.58;1.02;;;21.20;99.90;;;;;;2105828;28;20558;-68
2021/07/06 04:19:46;;;;;;;5.43;1.05;;;21.30;99.90;;;;;;2105691;28;20028;-68
2021/07/06 04:20:47;;;;;;;2.67;0.52;;;21.50;99.90;;;;;;2105966;28;20086;-68
2021/07/06 04:21:48;;;;;;;1.33;0.73;;;21.60;99.90;;;;;;2105607;28;20097;-68
2021/07/06 04:22:48;;;;;;;3.55;1.10;;;21.60;99.90;;;;;;2106679;28;20024;-68
2021/07/06 04:23:49;;;;;;;3.85;1.08;;;21.70;99.90;;;;;;2105418;28;20517;-68
2021/07/06 04:24:49;;;;;;;1.58;0.80;;;21.80;99.90;;;;;;2105634;28;20048;-68
2021/07/06 04:25:50;;;;;;;1.90;0.93;;;21.90;99.90;;;;;;2106149;28;20132;-68
2021/07/06 04:26:51;;;;;;;1.05;0.95;;;22.00;99.90;;;;;;2105568;28;20114;-68
2021/07/06 04:27:51;;;;;;;4.43;1.10;;;22.00;99.90;;;;;;2105698;28;20111;-68
2021/07/06 04:28:52;;;;;;;2.95;1.20;;;22.10;99.90;;;;;;2106165;28;20428;-68
2021/07/06 04:29:53;;;;;;;2.03;1.30;;;22.10;99.90;;;;;;2106462;28;20052;-68
2021/07/06 04:30:53;;;;;;;1.42;0.93;;;22.10;99.90;;;;;;2106210;28;20032;-70
2021/07/06 04:31:54;;;;;;;2.05;0.80;;;22.10;99.90;;;;;;2105080;28;20020;-68
2021/07/06 04:32:55;;;;;;;1.73;0.85;;;22.10;99.90;;;;;;2105514;28;20024;-68
2021/07/06 04:33:55;;;;;;;1.98;1.00;;;22.00;99.90;;;;;;2105503;28;20103;-68
2021/07/06 04:34:56;;;;;;;1.60;1.00;;;22.00;99.90;;;;;;2097093;28;20107;-68
2021/07/06 04:35:57;;;;;;;4.55;1.15;;;22.00;99.90;;;;;;2105686;28;20016;-68
2021/07/06 04:36:57;;;;;;;3.90;0.65;;;22.00;99.90;;;;;;2106234;28;20081;-68
2021/07/06 04:37:58;;;;;;;3.97;0.82;;;21.90;99.90;;;;;;2106403;28;20024;-68
2021/07/06 04:38:58;;;;;;;2.30;1.00;;;21.90;99.90;;;;;;2105403;28;20024;-68
2021/07/06 04:40:00;;;;;;;1.90;0.80;;;21.90;99.90;;;;;;2105566;28;20055;-68
2021/07/06 04:41:00;;;;;;;2.47;0.90;;;21.90;99.90;;;;;;2105411;28;20039;-68
2021/07/06 04:42:01;;;;;;;1.42;0.70;;;21.90;99.90;;;;;;2096824;28;20051;-68
2021/07/06 04:43:04;;;;;;;1.63;0.80;;;21.90;99.90;;;;;;2105365;28;20020;-68
2021/07/06 04:44:05;;;;;;;3.92;0.98;;;21.90;99.90;;;;;;2106208;28;20384;-68
2021/07/06 04:45:06;;;;;;;0.95;0.82;;;21.90;99.90;;;;;;2105889;28;20036;-68
2021/07/06 04:46:06;;;;;;;3.90;0.90;;;21.90;99.90;;;;;;2105712;28;20184;-68
2021/07/06 04:47:07;;;;;;;1.55;0.90;;;21.90;99.90;;;;;;2105513;28;20037;-68
2021/07/06 04:48:10;;;;;;;2.15;0.77;;;21.90;99.90;;;;;;2105218;28;20391;-68
2021/07/06 04:49:10;;;;;;;1.40;0.95;;;21.90;99.90;;;;;;2104780;28;20024;-68
2021/07/06 04:50:13;;;;;;;1.23;0.73;;;22.00;99.90;;;;;;2106226;28;20024;-68
2021/07/06 04:51:14;;;;;;;2.38;0.75;;;22.00;99.90;;;;;;2105908;28;20126;-68
2021/07/06 04:52:16;;;;;;;1.83;0.80;;;22.00;99.90;;;;;;2105692;28;20477;-68
2021/07/06 04:53:18;;;;;;;2.58;0.82;;;22.00;99.90;;;;;;2105961;28;20482;-67
2021/07/06 04:54:23;;;;;;;1.83;1.00;;;22.00;99.90;;;;;;2106127;28;20098;-68
2021/07/06 04:55:23;;;;;;;2.03;0.90;;;22.00;99.90;;;;;;2106017;28;20602;-68
2021/07/06 04:56:26;;;;;;;0.63;0.60;;;22.10;99.90;;;;;;2106325;28;20413;-68
2021/07/06 04:57:27;;;;;;;5.78;1.10;;;22.10;99.90;;;;;;2106066;28;20020;-68
2021/07/06 04:58:28;;;;;;;1.13;0.80;;;22.10;99.90;;;;;;2106186;28;20463;-68
2021/07/06 04:59:29;;;;;;;3.30;0.93;;;22.10;99.90;;;;;;2104863;28;20035;-68
2021/07/06 05:00:30;;;;;;;0.88;0.77;;;22.10;99.90;;;;;;2097130;28;20043;-68
2021/07/06 05:01:30;;;;;;;4.35;0.80;;;22.10;99.90;;;;;;2096253;28;20032;-68
2021/07/06 05:02:31;;;;;;;3.15;1.00;;;22.10;99.90;;;;;;2104486;28;20028;-68
2021/07/06 05:03:33;;;;;;;1.58;0.98;;;22.10;99.90;;;;;;2105052;28;20075;-68
2021/07/06 05:04:34;;;;;;;1.50;0.85;;;22.20;99.90;;;;;;2105583;28;20048;-68
2021/07/06 05:05:38;;;;;;;2.95;0.95;;;22.20;99.90;;;;;;2105909;28;20383;-68
2021/07/06 05:06:39;;;;;;;2.20;0.82;;;22.20;99.90;;;;;;2106157;28;20034;-68
2021/07/06 05:07:40;;;;;;;4.00;0.98;;;22.20;99.90;;;;;;2105899;28;20028;-68
2021/07/06 05:08:41;;;;;;;2.33;0.90;;;22.20;99.90;;;;;;2105930;28;20030;-68
2021/07/06 05:09:41;;;;;;;3.78;1.15;;;22.20;99.90;;;;;;2105941;28;20069;-68
2021/07/06 05:10:42;;;;;;;1.15;0.85;;;22.20;99.90;;;;;;2105345;28;20368;-68
2021/07/06 05:11:42;;;;;;;2.10;0.93;;;22.20;99.90;;;;;;2104792;28;20043;-68
2021/07/06 05:12:43;;;;;;;2.92;0.77;;;22.20;99.90;;;;;;2105985;28;20081;-69
2021/07/06 05:13:44;;;;;;;2.58;1.10;;;22.20;99.90;;;;;;2105808;28;20030;-68
2021/07/06 05:14:44;;;;;;;2.45;0.90;;;22.20;99.90;;;;;;2105810;28;20065;-68
2021/07/06 05:15:45;;;;;;;1.67;1.13;;;22.20;99.90;;;;;;2106125;28;20036;-68
2021/07/06 05:16:45;;;;;;;0.60;0.60;;;22.20;99.90;;;;;;2105970;28;20099;-68
2021/07/06 05:17:46;;;;;;;1.83;1.02;;;22.20;99.90;;;;;;2106118;28;20356;-68
2021/07/06 05:18:47;;;;;;;2.67;0.88;;;22.20;99.90;;;;;;2105749;28;20024;-68
2021/07/06 05:19:47;;;;;;;2.83;1.30;;;22.20;99.90;;;;;;2106169;28;20026;-68